sensor_id;sensor_type;location;lat;lon;timestamp;P1;durP1;ratioP1;P2;durP2;ratioP2
62903;SDS011;49000;50.698;13.322;2022-07-12T00:01:05;0.80;;;0.77;;
62903;SDS011;49000;50.698;13.322;2022-07-12T00:03:31;0.70;;;0.60;;
62903;SDS011;49000;50.698;13.322;2022-07-12T00:05:57;0.60;;;0.50;;
62903;SDS011;49000;50.698;13.322;2022-07-12T00:08:23;1.20;;;0.70;;
62903;SDS011;49000;50.698;13.322;2022-07-12T00:10:49;1.20;;;0.50;;
62903;SDS011;49000;50.698;13.322;2022-07-12T00:13:15;0.57;;;0.57;;
62903;SDS011;49000;50.698;13.322;2022-07-12T00:15:40;0.60;;;0.60;;
62903;SDS011;49000;50.698;13.322;2022-07-12T00:18:06;0.70;;;0.60;;
62903;SDS011;49000;50.698;13.322;2022-07-12T00:20:32;0.70;;;0.70;;
62903;SDS011;49000;50.698;13.322;2022-07-12T00:22:58;1.13;;;0.83;;
62903;SDS011;49000;50.698;13.322;2022-07-12T00:25:23;0.70;;;0.60;;
62903;SDS011;49000;50.698;13.322;2022-07-12T00:27:50;0.97;;;0.70;;
62903;SDS011;49000;50.698;13.322;2022-07-12T00:30:15;1.97;;;0.67;;
62903;SDS011;49000;50.698;13.322;2022-07-12T00:32:40;0.60;;;0.60;;
62903;SDS011;49000;50.698;13.322;2022-07-12T00:35:06;0.70;;;0.60;;
62903;SDS011;49000;50.698;13.322;2022-07-12T00:37:32;0.57;;;0.57;;
62903;SDS011;49000;50.698;13.322;2022-07-12T00:39:58;0.90;;;0.67;;
62903;SDS011;49000;50.698;13.322;2022-07-12T00:42:24;1.00;;;0.80;;
62903;SDS011;49000;50.698;13.322;2022-07-12T00:44:51;0.67;;;0.67;;
62903;SDS011;49000;50.698;13.322;2022-07-12T00:47:26;0.80;;;0.50;;
62903;SDS011;49000;50.698;13.322;2022-07-12T00:49:58;2.03;;;1.00;;
62903;SDS011;49000;50.698;13.322;2022-07-12T00:52:24;1.10;;;0.80;;
62903;SDS011;49000;50.698;13.322;2022-07-12T00:54:49;1.00;;;0.70;;
62903;SDS011;49000;50.698;13.322;2022-07-12T00:57:15;0.77;;;0.77;;
62903;SDS011;49000;50.698;13.322;2022-07-12T00:59:40;0.60;;;0.60;;
62903;SDS011;49000;50.698;13.322;2022-07-12T01:02:06;0.70;;;0.70;;
62903;SDS011;49000;50.698;13.322;2022-07-12T01:04:32;2.50;;;0.80;;
62903;SDS011;49000;50.698;13.322;2022-07-12T01:06:59;0.60;;;0.60;;
62903;SDS011;49000;50.698;13.322;2022-07-12T01:09:25;0.97;;;0.80;;
62903;SDS011;49000;50.698;13.322;2022-07-12T01:11:51;0.50;;;0.50;;
62903;SDS011;49000;50.698;13.322;2022-07-12T01:14:17;0.70;;;0.70;;
62903;SDS011;49000;50.698;13.322;2022-07-12T01:16:42;0.73;;;0.70;;
62903;SDS011;49000;50.698;13.322;2022-07-12T01:19:08;0.57;;;0.57;;
62903;SDS011;49000;50.698;13.322;2022-07-12T01:21:40;1.00;;;0.80;;
62903;SDS011;49000;50.698;13.322;2022-07-12T01:24:07;1.17;;;0.93;;
62903;SDS011;49000;50.698;13.322;2022-07-12T01:26:35;1.07;;;0.80;;
62903;SDS011;49000;50.698;13.322;2022-07-12T01:29:01;3.80;;;0.60;;
62903;SDS011;49000;50.698;13.322;2022-07-12T01:31:27;0.50;;;0.50;;
62903;SDS011;49000;50.698;13.322;2022-07-12T01:33:53;2.50;;;1.00;;
62903;SDS011;49000;50.698;13.322;2022-07-12T01:36:18;0.90;;;0.80;;
62903;SDS011;49000;50.698;13.322;2022-07-12T01:38:44;1.23;;;0.90;;
62903;SDS011;49000;50.698;13.322;2022-07-12T01:41:09;0.60;;;0.60;;
62903;SDS011;49000;50.698;13.322;2022-07-12T01:43:35;0.60;;;0.60;;
62903;SDS011;49000;50.698;13.322;2022-07-12T01:46:00;1.23;;;0.90;;
62903;SDS011;49000;50.698;13.322;2022-07-12T01:48:26;1.43;;;1.00;;
62903;SDS011;49000;50.698;13.322;2022-07-12T01:50:51;0.70;;;0.70;;
62903;SDS011;49000;50.698;13.322;2022-07-12T01:53:17;0.97;;;0.70;;
62903;SDS011;49000;50.698;13.322;2022-07-12T01:55:42;0.67;;;0.67;;
62903;SDS011;49000;50.698;13.322;2022-07-12T01:58:08;0.70;;;0.60;;
62903;SDS011;49000;50.698;13.322;2022-07-12T02:00:35;0.70;;;0.70;;
62903;SDS011;49000;50.698;13.322;2022-07-12T02:03:01;0.90;;;0.80;;
62903;SDS011;49000;50.698;13.322;2022-07-12T02:05:26;2.37;;;1.00;;
62903;SDS011;49000;50.698;13.322;2022-07-12T02:07:53;0.87;;;0.80;;
62903;SDS011;49000;50.698;13.322;2022-07-12T02:10:19;0.77;;;0.60;;
62903;SDS011;49000;50.698;13.322;2022-07-12T02:12:45;1.00;;;0.87;;
62903;SDS011;49000;50.698;13.322;2022-07-12T02:15:10;0.97;;;0.77;;
62903;SDS011;49000;50.698;13.322;2022-07-12T02:17:35;0.70;;;0.60;;
62903;SDS011;49000;50.698;13.322;2022-07-12T02:20:02;1.00;;;0.90;;
62903;SDS011;49000;50.698;13.322;2022-07-12T02:22:28;1.23;;;0.70;;
62903;SDS011;49000;50.698;13.322;2022-07-12T02:24:54;1.17;;;0.67;;
62903;SDS011;49000;50.698;13.322;2022-07-12T02:27:19;1.00;;;0.60;;
62903;SDS011;49000;50.698;13.322;2022-07-12T02:29:45;1.60;;;0.80;;
62903;SDS011;49000;50.698;13.322;2022-07-12T02:32:11;0.80;;;0.70;;
62903;SDS011;49000;50.698;13.322;2022-07-12T02:34:36;1.30;;;0.90;;
62903;SDS011;49000;50.698;13.322;2022-07-12T02:37:02;0.97;;;0.83;;
62903;SDS011;49000;50.698;13.322;2022-07-12T02:39:28;0.93;;;0.77;;
62903;SDS011;49000;50.698;13.322;2022-07-12T02:41:54;1.00;;;0.90;;
62903;SDS011;49000;50.698;13.322;2022-07-12T02:44:19;1.27;;;0.50;;
62903;SDS011;49000;50.698;13.322;2022-07-12T02:46:45;0.90;;;0.70;;
62903;SDS011;49000;50.698;13.322;2022-07-12T02:49:10;0.80;;;0.80;;
62903;SDS011;49000;50.698;13.322;2022-07-12T02:51:36;1.43;;;0.80;;
62903;SDS011;49000;50.698;13.322;2022-07-12T02:54:01;1.13;;;0.80;;
62903;SDS011;49000;50.698;13.322;2022-07-12T02:56:27;0.77;;;0.70;;
62903;SDS011;49000;50.698;13.322;2022-07-12T02:58:53;0.60;;;0.60;;
62903;SDS011;49000;50.698;13.322;2022-07-12T03:01:18;0.70;;;0.70;;
62903;SDS011;49000;50.698;13.322;2022-07-12T03:03:44;1.10;;;0.80;;
62903;SDS011;49000;50.698;13.322;2022-07-12T03:06:09;2.97;;;1.07;;
62903;SDS011;49000;50.698;13.322;2022-07-12T03:08:35;0.93;;;0.80;;
62903;SDS011;49000;50.698;13.322;2022-07-12T03:11:00;1.03;;;0.93;;
62903;SDS011;49000;50.698;13.322;2022-07-12T03:13:26;1.63;;;0.90;;
62903;SDS011;49000;50.698;13.322;2022-07-12T03:15:51;0.70;;;0.60;;
62903;SDS011;49000;50.698;13.322;2022-07-12T03:18:17;2.13;;;1.47;;
62903;SDS011;49000;50.698;13.322;2022-07-12T03:20:42;1.00;;;0.80;;
62903;SDS011;49000;50.698;13.322;2022-07-12T03:23:08;0.60;;;0.57;;
62903;SDS011;49000;50.698;13.322;2022-07-12T03:25:33;0.90;;;0.80;;
62903;SDS011;49000;50.698;13.322;2022-07-12T03:27:59;1.10;;;0.87;;
62903;SDS011;49000;50.698;13.322;2022-07-12T03:30:24;0.90;;;0.90;;
62903;SDS011;49000;50.698;13.322;2022-07-12T03:32:50;1.03;;;0.93;;
62903;SDS011;49000;50.698;13.322;2022-07-12T03:35:16;0.60;;;0.60;;
62903;SDS011;49000;50.698;13.322;2022-07-12T03:37:48;0.90;;;0.70;;
62903;SDS011;49000;50.698;13.322;2022-07-12T03:40:15;0.80;;;0.70;;
62903;SDS011;49000;50.698;13.322;2022-07-12T03:42:42;0.60;;;0.60;;
62903;SDS011;49000;50.698;13.322;2022-07-12T03:45:09;1.10;;;0.70;;
62903;SDS011;49000;50.698;13.322;2022-07-12T03:47:35;0.93;;;0.83;;
62903;SDS011;49000;50.698;13.322;2022-07-12T03:50:02;0.90;;;0.80;;
62903;SDS011;49000;50.698;13.322;2022-07-12T03:52:30;0.97;;;0.90;;
62903;SDS011;49000;50.698;13.322;2022-07-12T03:54:56;0.83;;;0.70;;
62903;SDS011;49000;50.698;13.322;2022-07-12T03:57:22;0.90;;;0.90;;
62903;SDS011;49000;50.698;13.322;2022-07-12T03:59:47;0.90;;;0.80;;
62903;SDS011;49000;50.698;13.322;2022-07-12T04:02:13;1.57;;;1.00;;
62903;SDS011;49000;50.698;13.322;2022-07-12T04:04:39;1.17;;;1.03;;
62903;SDS011;49000;50.698;13.322;2022-07-12T04:07:04;1.33;;;1.10;;
62903;SDS011;49000;50.698;13.322;2022-07-12T04:09:30;0.90;;;0.80;;
62903;SDS011;49000;50.698;13.322;2022-07-12T04:11:56;1.80;;;0.73;;
62903;SDS011;49000;50.698;13.322;2022-07-12T04:14:21;1.10;;;1.00;;
62903;SDS011;49000;50.698;13.322;2022-07-12T04:16:47;0.87;;;0.80;;
62903;SDS011;49000;50.698;13.322;2022-07-12T04:19:12;1.27;;;0.90;;
62903;SDS011;49000;50.698;13.322;2022-07-12T04:21:38;1.10;;;1.00;;
62903;SDS011;49000;50.698;13.322;2022-07-12T04:24:04;1.30;;;1.10;;
62903;SDS011;49000;50.698;13.322;2022-07-12T04:26:30;2.03;;;1.30;;
62903;SDS011;49000;50.698;13.322;2022-07-12T04:28:56;1.67;;;1.33;;
62903;SDS011;49000;50.698;13.322;2022-07-12T04:31:22;3.17;;;1.67;;
62903;SDS011;49000;50.698;13.322;2022-07-12T04:33:48;2.23;;;1.40;;
62903;SDS011;49000;50.698;13.322;2022-07-12T04:36:14;2.20;;;1.50;;
62903;SDS011;49000;50.698;13.322;2022-07-12T04:38:39;1.63;;;1.40;;
62903;SDS011;49000;50.698;13.322;2022-07-12T04:41:05;1.37;;;1.27;;
62903;SDS011;49000;50.698;13.322;2022-07-12T04:43:30;1.30;;;1.03;;
62903;SDS011;49000;50.698;13.322;2022-07-12T04:45:56;2.50;;;1.30;;
62903;SDS011;49000;50.698;13.322;2022-07-12T04:48:29;1.20;;;1.07;;
62903;SDS011;49000;50.698;13.322;2022-07-12T04:50:55;2.87;;;1.13;;
62903;SDS011;49000;50.698;13.322;2022-07-12T04:53:21;3.10;;;1.50;;
62903;SDS011;49000;50.698;13.322;2022-07-12T04:55:46;2.13;;;1.83;;
62903;SDS011;49000;50.698;13.322;2022-07-12T04:58:12;2.70;;;1.90;;
62903;SDS011;49000;50.698;13.322;2022-07-12T05:00:37;3.40;;;3.00;;
62903;SDS011;49000;50.698;13.322;2022-07-12T05:03:03;3.17;;;2.77;;
62903;SDS011;49000;50.698;13.322;2022-07-12T05:05:29;2.27;;;1.93;;
62903;SDS011;49000;50.698;13.322;2022-07-12T05:07:54;2.87;;;2.50;;
62903;SDS011;49000;50.698;13.322;2022-07-12T05:10:19;2.30;;;2.00;;
62903;SDS011;49000;50.698;13.322;2022-07-12T05:12:45;2.50;;;2.30;;
62903;SDS011;49000;50.698;13.322;2022-07-12T05:15:11;4.93;;;3.53;;
62903;SDS011;49000;50.698;13.322;2022-07-12T05:17:36;5.97;;;4.50;;
62903;SDS011;49000;50.698;13.322;2022-07-12T05:20:02;6.83;;;4.33;;
62903;SDS011;49000;50.698;13.322;2022-07-12T05:22:28;5.93;;;4.73;;
62903;SDS011;49000;50.698;13.322;2022-07-12T05:24:53;6.37;;;4.60;;
62903;SDS011;49000;50.698;13.322;2022-07-12T05:27:19;4.90;;;3.90;;
62903;SDS011;49000;50.698;13.322;2022-07-12T05:29:44;5.60;;;4.67;;
62903;SDS011;49000;50.698;13.322;2022-07-12T05:32:10;5.70;;;4.53;;
62903;SDS011;49000;50.698;13.322;2022-07-12T05:34:36;5.47;;;4.67;;
62903;SDS011;49000;50.698;13.322;2022-07-12T05:37:03;6.00;;;4.80;;
62903;SDS011;49000;50.698;13.322;2022-07-12T05:39:29;6.40;;;5.10;;
62903;SDS011;49000;50.698;13.322;2022-07-12T05:41:54;6.00;;;4.63;;
62903;SDS011;49000;50.698;13.322;2022-07-12T05:44:21;5.77;;;4.30;;
62903;SDS011;49000;50.698;13.322;2022-07-12T05:46:47;5.30;;;4.73;;
62903;SDS011;49000;50.698;13.322;2022-07-12T05:49:13;5.37;;;4.53;;
62903;SDS011;49000;50.698;13.322;2022-07-12T05:51:39;5.70;;;5.00;;
62903;SDS011;49000;50.698;13.322;2022-07-12T05:54:23;5.67;;;4.70;;
62903;SDS011;49000;50.698;13.322;2022-07-12T05:56:48;7.53;;;5.17;;
62903;SDS011;49000;50.698;13.322;2022-07-12T05:59:15;7.07;;;5.47;;
62903;SDS011;49000;50.698;13.322;2022-07-12T06:01:42;5.97;;;4.90;;
62903;SDS011;49000;50.698;13.322;2022-07-12T06:04:07;6.17;;;4.97;;
62903;SDS011;49000;50.698;13.322;2022-07-12T06:06:33;6.37;;;5.00;;
62903;SDS011;49000;50.698;13.322;2022-07-12T06:08:58;6.17;;;5.10;;
62903;SDS011;49000;50.698;13.322;2022-07-12T06:11:24;5.93;;;5.33;;
62903;SDS011;49000;50.698;13.322;2022-07-12T06:13:49;7.23;;;5.60;;
62903;SDS011;49000;50.698;13.322;2022-07-12T06:16:15;7.10;;;5.87;;
62903;SDS011;49000;50.698;13.322;2022-07-12T06:18:41;6.17;;;5.47;;
62903;SDS011;49000;50.698;13.322;2022-07-12T06:21:06;7.00;;;5.80;;
62903;SDS011;49000;50.698;13.322;2022-07-12T06:23:32;5.67;;;5.07;;
62903;SDS011;49000;50.698;13.322;2022-07-12T06:25:57;6.40;;;5.03;;
62903;SDS011;49000;50.698;13.322;2022-07-12T06:28:23;6.17;;;4.57;;
62903;SDS011;49000;50.698;13.322;2022-07-12T06:30:48;6.30;;;4.93;;
62903;SDS011;49000;50.698;13.322;2022-07-12T06:33:14;6.07;;;5.47;;
62903;SDS011;49000;50.698;13.322;2022-07-12T06:35:39;5.50;;;5.00;;
62903;SDS011;49000;50.698;13.322;2022-07-12T06:38:04;5.77;;;5.17;;
62903;SDS011;49000;50.698;13.322;2022-07-12T06:40:30;5.97;;;5.20;;
62903;SDS011;49000;50.698;13.322;2022-07-12T06:42:56;5.17;;;4.67;;
62903;SDS011;49000;50.698;13.322;2022-07-12T06:45:22;6.53;;;5.37;;
62903;SDS011;49000;50.698;13.322;2022-07-12T06:47:48;5.57;;;5.07;;
62903;SDS011;49000;50.698;13.322;2022-07-12T06:50:13;6.07;;;5.10;;
62903;SDS011;49000;50.698;13.322;2022-07-12T06:52:39;5.20;;;4.70;;
62903;SDS011;49000;50.698;13.322;2022-07-12T06:55:05;5.70;;;5.20;;
62903;SDS011;49000;50.698;13.322;2022-07-12T06:57:31;5.13;;;4.63;;
62903;SDS011;49000;50.698;13.322;2022-07-12T06:59:56;5.37;;;4.70;;
62903;SDS011;49000;50.698;13.322;2022-07-12T07:02:22;5.53;;;5.03;;
62903;SDS011;49000;50.698;13.322;2022-07-12T07:04:47;4.20;;;3.80;;
62903;SDS011;49000;50.698;13.322;2022-07-12T07:07:13;5.03;;;4.33;;
62903;SDS011;49000;50.698;13.322;2022-07-12T07:09:39;6.37;;;4.40;;
62903;SDS011;49000;50.698;13.322;2022-07-12T07:12:04;5.33;;;4.63;;
62903;SDS011;49000;50.698;13.322;2022-07-12T07:14:30;4.70;;;4.20;;
62903;SDS011;49000;50.698;13.322;2022-07-12T07:16:56;4.47;;;3.87;;
62903;SDS011;49000;50.698;13.322;2022-07-12T07:19:21;5.17;;;4.60;;
62903;SDS011;49000;50.698;13.322;2022-07-12T07:21:51;6.07;;;4.30;;
62903;SDS011;49000;50.698;13.322;2022-07-12T07:24:17;4.33;;;3.93;;
62903;SDS011;49000;50.698;13.322;2022-07-12T07:26:43;5.47;;;4.90;;
62903;SDS011;49000;50.698;13.322;2022-07-12T07:29:08;4.27;;;3.87;;
62903;SDS011;49000;50.698;13.322;2022-07-12T07:31:52;5.17;;;3.70;;
62903;SDS011;49000;50.698;13.322;2022-07-12T07:34:18;3.93;;;3.53;;
62903;SDS011;49000;50.698;13.322;2022-07-12T07:36:43;5.07;;;3.43;;
62903;SDS011;49000;50.698;13.322;2022-07-12T07:39:09;4.70;;;3.13;;
62903;SDS011;49000;50.698;13.322;2022-07-12T07:41:34;3.57;;;2.83;;
62903;SDS011;49000;50.698;13.322;2022-07-12T07:44:00;3.00;;;2.70;;
62903;SDS011;49000;50.698;13.322;2022-07-12T07:46:25;4.40;;;3.33;;
62903;SDS011;49000;50.698;13.322;2022-07-12T07:48:51;3.70;;;3.30;;
62903;SDS011;49000;50.698;13.322;2022-07-12T07:51:16;4.20;;;3.30;;
62903;SDS011;49000;50.698;13.322;2022-07-12T07:53:42;4.90;;;3.30;;
62903;SDS011;49000;50.698;13.322;2022-07-12T07:56:07;3.40;;;3.10;;
62903;SDS011;49000;50.698;13.322;2022-07-12T07:58:33;4.27;;;3.10;;
62903;SDS011;49000;50.698;13.322;2022-07-12T08:00:58;2.97;;;2.77;;
62903;SDS011;49000;50.698;13.322;2022-07-12T08:03:24;3.40;;;3.10;;
62903;SDS011;49000;50.698;13.322;2022-07-12T08:05:50;4.63;;;3.00;;
62903;SDS011;49000;50.698;13.322;2022-07-12T08:08:16;3.78;;;3.38;;
62903;SDS011;49000;50.698;13.322;2022-07-12T08:10:42;3.40;;;2.83;;
62903;SDS011;49000;50.698;13.322;2022-07-12T08:13:08;3.25;;;2.95;;
62903;SDS011;49000;50.698;13.322;2022-07-12T08:15:33;3.30;;;3.00;;
62903;SDS011;49000;50.698;13.322;2022-07-12T08:17:59;3.45;;;3.15;;
62903;SDS011;49000;50.698;13.322;2022-07-12T08:20:25;4.35;;;3.67;;
62903;SDS011;49000;50.698;13.322;2022-07-12T08:22:51;4.55;;;3.38;;
62903;SDS011;49000;50.698;13.322;2022-07-12T08:25:16;5.45;;;3.13;;
62903;SDS011;49000;50.698;13.322;2022-07-12T08:27:42;3.13;;;2.83;;
62903;SDS011;49000;50.698;13.322;2022-07-12T08:30:08;3.13;;;2.83;;
62903;SDS011;49000;50.698;13.322;2022-07-12T08:32:35;3.85;;;2.55;;
62903;SDS011;49000;50.698;13.322;2022-07-12T08:35:01;3.88;;;2.88;;
62903;SDS011;49000;50.698;13.322;2022-07-12T08:37:26;2.85;;;2.65;;
62903;SDS011;49000;50.698;13.322;2022-07-12T08:39:52;4.10;;;2.78;;
62903;SDS011;49000;50.698;13.322;2022-07-12T08:42:17;3.72;;;2.70;;
62903;SDS011;49000;50.698;13.322;2022-07-12T08:44:55;4.05;;;2.17;;
62903;SDS011;49000;50.698;13.322;2022-07-12T08:47:21;2.63;;;1.90;;
62903;SDS011;49000;50.698;13.322;2022-07-12T08:50:20;2.70;;;2.45;;
62903;SDS011;49000;50.698;13.322;2022-07-12T08:52:48;3.20;;;2.90;;
62903;SDS011;49000;50.698;13.322;2022-07-12T08:55:16;2.83;;;2.40;;
62903;SDS011;49000;50.698;13.322;2022-07-12T08:57:43;3.20;;;2.70;;
62903;SDS011;49000;50.698;13.322;2022-07-12T09:00:08;3.55;;;2.45;;
62903;SDS011;49000;50.698;13.322;2022-07-12T09:05:24;2.90;;;2.60;;
62903;SDS011;49000;50.698;13.322;2022-07-12T09:07:51;2.83;;;2.55;;
62903;SDS011;49000;50.698;13.322;2022-07-12T09:10:25;2.72;;;2.42;;
62903;SDS011;49000;50.698;13.322;2022-07-12T09:12:51;1.90;;;1.80;;
62903;SDS011;49000;50.698;13.322;2022-07-12T09:15:18;2.25;;;2.03;;
62903;SDS011;49000;50.698;13.322;2022-07-12T09:18:07;2.13;;;1.92;;
62903;SDS011;49000;50.698;13.322;2022-07-12T09:20:38;3.45;;;1.83;;
62903;SDS011;49000;50.698;13.322;2022-07-12T09:23:08;1.88;;;1.77;;
62903;SDS011;49000;50.698;13.322;2022-07-12T09:25:36;3.15;;;1.65;;
62903;SDS011;49000;50.698;13.322;2022-07-12T09:28:03;1.58;;;1.38;;
62903;SDS011;49000;50.698;13.322;2022-07-12T09:30:33;2.33;;;1.90;;
62903;SDS011;49000;50.698;13.322;2022-07-12T09:33:05;2.20;;;1.83;;
62903;SDS011;49000;50.698;13.322;2022-07-12T09:38:49;2.75;;;1.90;;
62903;SDS011;49000;50.698;13.322;2022-07-12T09:41:22;1.75;;;1.65;;
62903;SDS011;49000;50.698;13.322;2022-07-12T09:43:48;2.78;;;1.63;;
62903;SDS011;49000;50.698;13.322;2022-07-12T09:46:15;1.42;;;1.33;;
62903;SDS011;49000;50.698;13.322;2022-07-12T09:48:41;2.30;;;1.13;;
62903;SDS011;49000;50.698;13.322;2022-07-12T09:51:08;1.70;;;1.60;;
62903;SDS011;49000;50.698;13.322;2022-07-12T09:53:38;1.10;;;1.02;;
62903;SDS011;49000;50.698;13.322;2022-07-12T09:56:10;1.80;;;1.70;;
62903;SDS011;49000;50.698;13.322;2022-07-12T09:58:39;1.90;;;1.80;;
62903;SDS011;49000;50.698;13.322;2022-07-12T10:01:25;1.83;;;1.33;;
62903;SDS011;49000;50.698;13.322;2022-07-12T10:03:51;1.58;;;1.48;;
62903;SDS011;49000;50.698;13.322;2022-07-12T10:06:27;2.10;;;1.50;;
62903;SDS011;49000;50.698;13.322;2022-07-12T10:08:54;1.80;;;1.40;;
62903;SDS011;49000;50.698;13.322;2022-07-12T10:11:21;1.63;;;1.52;;
62903;SDS011;49000;50.698;13.322;2022-07-12T10:13:47;1.30;;;1.20;;
62903;SDS011;49000;50.698;13.322;2022-07-12T10:16:14;1.17;;;1.08;;
62903;SDS011;49000;50.698;13.322;2022-07-12T10:18:41;1.77;;;1.33;;
62903;SDS011;49000;50.698;13.322;2022-07-12T10:21:19;1.77;;;1.40;;
62903;SDS011;49000;50.698;13.322;2022-07-12T10:23:46;1.33;;;1.20;;
62903;SDS011;49000;50.698;13.322;2022-07-12T10:28:59;1.33;;;0.93;;
62903;SDS011;49000;50.698;13.322;2022-07-12T10:31:33;1.00;;;1.00;;
62903;SDS011;49000;50.698;13.322;2022-07-12T10:34:12;1.38;;;1.27;;
62903;SDS011;49000;50.698;13.322;2022-07-12T10:39:25;1.45;;;1.10;;
62903;SDS011;49000;50.698;13.322;2022-07-12T10:44:39;1.23;;;1.00;;
62903;SDS011;49000;50.698;13.322;2022-07-12T10:47:07;0.90;;;0.90;;
62903;SDS011;49000;50.698;13.322;2022-07-12T10:49:33;1.25;;;1.00;;
62903;SDS011;49000;50.698;13.322;2022-07-12T10:54:38;1.20;;;1.10;;
62903;SDS011;49000;50.698;13.322;2022-07-12T10:57:05;1.10;;;1.00;;
62903;SDS011;49000;50.698;13.322;2022-07-12T10:59:35;1.15;;;1.05;;
62903;SDS011;49000;50.698;13.322;2022-07-12T11:02:02;1.30;;;1.20;;
62903;SDS011;49000;50.698;13.322;2022-07-12T11:04:29;1.02;;;0.93;;
62903;SDS011;49000;50.698;13.322;2022-07-12T11:06:54;1.23;;;0.73;;
62903;SDS011;49000;50.698;13.322;2022-07-12T11:09:23;1.13;;;1.00;;
62903;SDS011;49000;50.698;13.322;2022-07-12T11:11:49;1.58;;;0.80;;
62903;SDS011;49000;50.698;13.322;2022-07-12T11:14:20;1.00;;;0.90;;
62903;SDS011;49000;50.698;13.322;2022-07-12T11:16:46;1.60;;;0.85;;
62903;SDS011;49000;50.698;13.322;2022-07-12T11:19:13;1.08;;;1.00;;
62903;SDS011;49000;50.698;13.322;2022-07-12T11:21:42;0.98;;;0.98;;
62903;SDS011;49000;50.698;13.322;2022-07-12T11:24:15;1.48;;;1.38;;
62903;SDS011;49000;50.698;13.322;2022-07-12T11:26:42;0.95;;;0.93;;
62903;SDS011;49000;50.698;13.322;2022-07-12T11:29:07;2.33;;;0.88;;
62903;SDS011;49000;50.698;13.322;2022-07-12T11:31:33;2.95;;;1.00;;
62903;SDS011;49000;50.698;13.322;2022-07-12T11:33:58;1.00;;;0.70;;
62903;SDS011;49000;50.698;13.322;2022-07-12T11:36:25;1.00;;;0.90;;
62903;SDS011;49000;50.698;13.322;2022-07-12T11:38:52;0.93;;;0.90;;
62903;SDS011;49000;50.698;13.322;2022-07-12T11:41:17;0.65;;;0.60;;
62903;SDS011;49000;50.698;13.322;2022-07-12T11:43:44;0.68;;;0.68;;
62903;SDS011;49000;50.698;13.322;2022-07-12T11:46:10;0.80;;;0.60;;
62903;SDS011;49000;50.698;13.322;2022-07-12T11:48:37;1.30;;;0.70;;
62903;SDS011;49000;50.698;13.322;2022-07-12T11:51:04;2.45;;;1.10;;
62903;SDS011;49000;50.698;13.322;2022-07-12T11:53:34;1.23;;;0.52;;
62903;SDS011;49000;50.698;13.322;2022-07-12T11:56:01;0.80;;;0.80;;
62903;SDS011;49000;50.698;13.322;2022-07-12T11:58:28;1.33;;;0.80;;
62903;SDS011;49000;50.698;13.322;2022-07-12T12:00:55;1.80;;;0.73;;
62903;SDS011;49000;50.698;13.322;2022-07-12T12:03:21;2.00;;;0.90;;
62903;SDS011;49000;50.698;13.322;2022-07-12T12:05:48;0.98;;;0.60;;
62903;SDS011;49000;50.698;13.322;2022-07-12T12:08:18;1.20;;;0.80;;
62903;SDS011;49000;50.698;13.322;2022-07-12T12:10:55;2.00;;;0.80;;
62903;SDS011;49000;50.698;13.322;2022-07-12T12:13:25;1.38;;;0.90;;
62903;SDS011;49000;50.698;13.322;2022-07-12T12:15:55;0.60;;;0.60;;
62903;SDS011;49000;50.698;13.322;2022-07-12T12:18:38;1.48;;;0.70;;
62903;SDS011;49000;50.698;13.322;2022-07-12T12:21:08;0.60;;;0.57;;
62903;SDS011;49000;50.698;13.322;2022-07-12T12:23:35;0.70;;;0.70;;
62903;SDS011;49000;50.698;13.322;2022-07-12T12:26:12;0.70;;;0.70;;
62903;SDS011;49000;50.698;13.322;2022-07-12T12:29:01;0.70;;;0.70;;
62903;SDS011;49000;50.698;13.322;2022-07-12T12:31:27;0.85;;;0.65;;
62903;SDS011;49000;50.698;13.322;2022-07-12T12:33:55;0.60;;;0.60;;
62903;SDS011;49000;50.698;13.322;2022-07-12T12:38:57;2.08;;;0.60;;
62903;SDS011;49000;50.698;13.322;2022-07-12T12:41:25;1.95;;;0.65;;
62903;SDS011;49000;50.698;13.322;2022-07-12T12:43:59;0.75;;;0.60;;
62903;SDS011;49000;50.698;13.322;2022-07-12T12:49:42;1.10;;;0.68;;
62903;SDS011;49000;50.698;13.322;2022-07-12T12:52:10;0.93;;;0.70;;
62903;SDS011;49000;50.698;13.322;2022-07-12T12:54:36;0.70;;;0.70;;
62903;SDS011;49000;50.698;13.322;2022-07-12T12:57:03;2.80;;;0.93;;
62903;SDS011;49000;50.698;13.322;2022-07-12T12:59:29;0.65;;;0.60;;
62903;SDS011;49000;50.698;13.322;2022-07-12T13:01:55;0.73;;;0.70;;
62903;SDS011;49000;50.698;13.322;2022-07-12T13:04:20;1.38;;;0.75;;
62903;SDS011;49000;50.698;13.322;2022-07-12T13:06:46;0.85;;;0.70;;
62903;SDS011;49000;50.698;13.322;2022-07-12T13:09:12;0.50;;;0.50;;
62903;SDS011;49000;50.698;13.322;2022-07-12T13:11:37;0.70;;;0.70;;
62903;SDS011;49000;50.698;13.322;2022-07-12T13:14:03;0.85;;;0.65;;
62903;SDS011;49000;50.698;13.322;2022-07-12T13:16:28;2.15;;;0.60;;
62903;SDS011;49000;50.698;13.322;2022-07-12T13:18:54;0.85;;;0.82;;
62903;SDS011;49000;50.698;13.322;2022-07-12T13:21:19;1.50;;;0.70;;
62903;SDS011;49000;50.698;13.322;2022-07-12T13:23:45;1.40;;;0.73;;
62903;SDS011;49000;50.698;13.322;2022-07-12T13:26:10;1.20;;;0.70;;
62903;SDS011;49000;50.698;13.322;2022-07-12T13:28:36;1.27;;;0.70;;
62903;SDS011;49000;50.698;13.322;2022-07-12T13:31:01;1.60;;;0.65;;
62903;SDS011;49000;50.698;13.322;2022-07-12T13:33:27;1.65;;;0.70;;
62903;SDS011;49000;50.698;13.322;2022-07-12T13:35:52;0.63;;;0.63;;
62903;SDS011;49000;50.698;13.322;2022-07-12T13:38:18;0.63;;;0.63;;
62903;SDS011;49000;50.698;13.322;2022-07-12T13:40:43;0.60;;;0.60;;
62903;SDS011;49000;50.698;13.322;2022-07-12T13:43:09;0.70;;;0.70;;
62903;SDS011;49000;50.698;13.322;2022-07-12T13:45:34;0.77;;;0.63;;
62903;SDS011;49000;50.698;13.322;2022-07-12T13:48:00;0.70;;;0.70;;
62903;SDS011;49000;50.698;13.322;2022-07-12T13:50:27;0.70;;;0.70;;
62903;SDS011;49000;50.698;13.322;2022-07-12T13:52:52;0.50;;;0.50;;
62903;SDS011;49000;50.698;13.322;2022-07-12T13:55:18;0.65;;;0.65;;
62903;SDS011;49000;50.698;13.322;2022-07-12T13:57:44;0.70;;;0.70;;
62903;SDS011;49000;50.698;13.322;2022-07-12T14:00:14;1.88;;;0.75;;
62903;SDS011;49000;50.698;13.322;2022-07-12T14:02:42;0.70;;;0.50;;
62903;SDS011;49000;50.698;13.322;2022-07-12T14:05:10;1.13;;;1.02;;
62903;SDS011;49000;50.698;13.322;2022-07-12T14:07:39;0.60;;;0.60;;
62903;SDS011;49000;50.698;13.322;2022-07-12T14:10:06;1.38;;;0.70;;
62903;SDS011;49000;50.698;13.322;2022-07-12T14:12:33;0.50;;;0.50;;
62903;SDS011;49000;50.698;13.322;2022-07-12T14:14:59;0.52;;;0.52;;
62903;SDS011;49000;50.698;13.322;2022-07-12T14:17:46;0.60;;;0.60;;
62903;SDS011;49000;50.698;13.322;2022-07-12T14:20:14;1.55;;;0.60;;
62903;SDS011;49000;50.698;13.322;2022-07-12T14:22:42;0.57;;;0.57;;
62903;SDS011;49000;50.698;13.322;2022-07-12T14:25:08;1.15;;;0.60;;
62903;SDS011;49000;50.698;13.322;2022-07-12T14:27:34;0.63;;;0.60;;
62903;SDS011;49000;50.698;13.322;2022-07-12T14:30:00;0.70;;;0.70;;
62903;SDS011;49000;50.698;13.322;2022-07-12T14:32:26;0.70;;;0.52;;
62903;SDS011;49000;50.698;13.322;2022-07-12T14:34:51;0.70;;;0.70;;
62903;SDS011;49000;50.698;13.322;2022-07-12T14:37:17;0.98;;;0.82;;
62903;SDS011;49000;50.698;13.322;2022-07-12T14:39:43;1.15;;;0.73;;
62903;SDS011;49000;50.698;13.322;2022-07-12T14:42:09;1.60;;;0.70;;
62903;SDS011;49000;50.698;13.322;2022-07-12T14:44:34;0.80;;;0.80;;
62903;SDS011;49000;50.698;13.322;2022-07-12T14:46:59;1.60;;;0.60;;
62903;SDS011;49000;50.698;13.322;2022-07-12T14:49:25;1.98;;;0.88;;
62903;SDS011;49000;50.698;13.322;2022-07-12T14:51:51;0.65;;;0.65;;
62903;SDS011;49000;50.698;13.322;2022-07-12T14:54:16;2.67;;;1.13;;